Airfield :
LOGIN :

Register | Disclaimer

   EN    FR    IT 

 










Legend :    VFR   Marginal VFR   IFR   Intensive IFR   Very Intensive IFR
Visi :
Ceiling :
>= 8 km
>= 3000ft
5 to 8 km
1000 to 3000 ft
1500m to 5 km
500 to 1000 ft
800 to 1500m
200 to 500 ft
< 800m
< 200 ft
Symbols :   Thunderstorms  Fog  Heavy snow  Heavy precipitations  Wind > 20 kt
SIGMETs :     Misc.  Thunderstorms  Icing  Turbulence  Mountain Waves  Volcanic Ashes







- Airport Elevation : 26 ft
- IATA code : BIA
- Download approach charts


LFKB - Bastia

CURRENT METAR :
  • 251130Z AUTO 05005KT 340V110 CAVOK 29/18 Q1016 TEMPO FEW035CB BKN150

EXPIRED METARs :
  • 251100Z AUTO 03006KT 340V070 CAVOK 29/19 Q1016 TEMPO FEW035CB BKN150
  • 251030Z AUTO 04007KT 360V070 CAVOK 29/19 Q1017 TEMPO FEW035CB BKN150
  • 251000Z AUTO 03007KT CAVOK 29/19 Q1017 TEMPO FEW035CB BKN150
  • 250930Z AUTO 02006KT 330V050 CAVOK 29/19 Q1017 TEMPO FEW035CB BKN150
  • 250900Z AUTO 04006KT 010V090 CAVOK 29/19 Q1017 NOSIG

TAF TAF LFKB
Valid from the 25 at 09:00 until the 26 at 09:00 UTC


250800Z 2509/2609 04010KT CAVOK TX30/2512Z TN20/2603Z
TEMPO 2511/2516 FEW035CB BKN150
BECMG 2518/2520 23003KT
BECMG 2606/2608 04010KT
ATIS : +33 4 95 59 19 40
No reported NOTAMs for that airfield.



MET'MAP, your aeronautical weather chart ! - Copyright ORBIFLY December 2007 - Disclaimer

ORBIFLY MET'MAP TEAM :

Programming & Development : Alexandra Zaïnal
Concept & Development : Baudouin d'Aumeries
Co-Development & Prog : Marc-Olivier Méhu
Technical & hardware support : Manuel Goepfert

Contact : metmap@orbifly.com




SOURCES & CREDITS :

   NOAA